createdAt,value
2022-11-05T00:01:39.085Z,97.49
2022-11-05T00:04:30.806Z,97.18
2022-11-05T00:08:00.586Z,97.59
2022-11-05T00:10:44.407Z,97.87
2022-11-05T00:13:32.978Z,98.00
2022-11-05T00:16:21.374Z,98.88
2022-11-05T00:19:14.311Z,98.58
2022-11-05T00:22:02.163Z,98.82
2022-11-05T00:24:50.320Z,98.94
2022-11-05T00:27:29.784Z,98.74
2022-11-05T00:38:54.922Z,99.29
2022-11-05T00:41:37.457Z,98.66
2022-11-05T00:44:32.251Z,98.98
2022-11-05T00:47:19.338Z,98.78
2022-11-05T00:49:52.925Z,98.54
2022-11-05T00:52:57.818Z,98.51
2022-11-05T00:56:07.371Z,98.67
2022-11-05T01:05:20.774Z,98.31
2022-11-05T01:07:59.314Z,98.60
2022-11-05T01:10:55.283Z,98.18
2022-11-05T01:13:37.288Z,98.60
2022-11-05T01:16:16.089Z,98.49
2022-11-05T01:19:02.172Z,98.61
2022-11-05T01:22:14.710Z,99.22
2022-11-05T01:24:46.293Z,99.41
2022-11-05T01:27:13.034Z,99.09
2022-11-05T01:29:39.596Z,99.49
2022-11-05T01:32:06.274Z,99.78
2022-11-05T01:34:32.889Z,99.62
2022-11-05T01:36:59.573Z,99.47
2022-11-05T01:39:26.204Z,98.92
2022-11-05T01:41:52.939Z,99.70
2022-11-05T01:45:04.834Z,99.54
2022-11-05T01:47:45.755Z,99.30
2022-11-05T01:50:25.080Z,99.00
2022-11-05T01:52:58.133Z,98.70
2022-11-05T01:55:30.197Z,98.86
2022-11-05T01:57:59.916Z,98.89
2022-11-05T02:00:28.067Z,98.70
2022-11-05T02:02:55.206Z,98.60
2022-11-05T02:05:22.627Z,98.61
2022-11-05T02:07:50.304Z,98.82
2022-11-05T02:10:20.640Z,98.49
2022-11-05T02:12:50.631Z,98.46
2022-11-05T02:15:55.403Z,98.91
2022-11-05T02:18:38.605Z,98.51
2022-11-05T02:21:36.061Z,98.52
2022-11-05T02:24:20.061Z,98.35
2022-11-05T02:27:02.368Z,98.55
2022-11-05T02:30:07.779Z,98.09
2022-11-05T02:32:37.618Z,98.39
2022-11-05T02:35:25.259Z,98.64
2022-11-05T02:37:55.158Z,99.25
2022-11-05T02:40:59.518Z,99.16
2022-11-05T02:43:55.391Z,98.25
2022-11-05T02:46:26.815Z,98.58
2022-11-05T02:49:13.943Z,98.87
2022-11-05T02:51:58.276Z,98.95
2022-11-05T02:54:31.382Z,99.50
2022-11-05T02:57:00.510Z,99.00
2022-11-05T02:59:27.313Z,99.62
2022-11-05T03:02:00.550Z,99.03
2022-11-05T03:04:34.545Z,98.99
2022-11-05T03:07:01.374Z,98.88
2022-11-05T03:09:55.894Z,99.59
2022-11-05T03:12:57.148Z,98.89
2022-11-05T03:15:35.344Z,99.24
2022-11-05T03:18:23.842Z,98.84
2022-11-05T03:21:01.325Z,99.27
2022-11-05T03:23:37.610Z,99.08
2022-11-05T03:26:18.604Z,100.00
2022-11-05T03:28:51.878Z,99.78
2022-11-05T03:31:21.998Z,99.35
2022-11-05T03:33:52.184Z,99.54
2022-11-05T03:36:31.643Z,99.80
2022-11-05T03:39:05.487Z,99.26
2022-11-05T03:41:35.278Z,99.15
2022-11-05T03:44:06.137Z,99.36
2022-11-05T03:46:38.751Z,99.07
2022-11-05T03:49:15.728Z,99.61
2022-11-05T03:51:49.588Z,99.84
2022-11-05T03:54:16.771Z,99.50
2022-11-05T03:57:10.845Z,99.71
2022-11-05T03:59:46.300Z,100.00
2022-11-05T04:02:15.443Z,100.00
2022-11-05T04:04:44.576Z,100.00
2022-11-05T04:07:30.911Z,99.99
2022-11-05T04:10:16.336Z,100.00
2022-11-05T04:13:01.904Z,99.94
2022-11-05T04:15:51.707Z,100.00
2022-11-05T04:18:19.057Z,99.74
2022-11-05T04:21:06.621Z,99.90
2022-11-05T04:23:51.907Z,99.13
2022-11-05T04:26:23.600Z,99.07
2022-11-05T04:29:14.082Z,99.64
2022-11-05T04:31:40.950Z,99.29
2022-11-05T04:34:10.457Z,99.23
2022-11-05T04:36:39.658Z,99.80
2022-11-05T04:39:06.528Z,99.39
2022-11-05T04:41:33.570Z,100.00
2022-11-05T04:44:00.621Z,100.00
2022-11-05T04:46:27.554Z,100.00
2022-11-05T04:48:57.501Z,100.00
2022-11-05T04:51:27.469Z,99.90
2022-11-05T04:53:54.800Z,99.73
2022-11-05T04:56:30.241Z,99.83
2022-11-05T04:58:57.772Z,100.00
2022-11-05T05:01:27.188Z,99.92
2022-11-05T05:03:57.357Z,100.00
2022-11-05T05:06:24.452Z,100.00
2022-11-05T05:08:52.288Z,100.00
2022-11-05T05:11:21.501Z,99.82
2022-11-05T05:13:50.915Z,100.00
2022-11-05T05:16:24.186Z,99.76
2022-11-05T05:18:51.294Z,100.00
2022-11-05T05:21:41.500Z,99.69
2022-11-05T05:24:18.751Z,99.82
2022-11-05T05:26:49.458Z,100.00
2022-11-05T05:29:25.764Z,99.92
2022-11-05T05:31:55.103Z,100.00
2022-11-05T05:34:26.114Z,100.00
2022-11-05T05:36:53.504Z,100.00
2022-11-05T05:39:23.295Z,100.00
2022-11-05T05:41:50.775Z,100.00
2022-11-05T05:44:20.302Z,100.00
2022-11-05T05:47:01.658Z,100.00
2022-11-05T05:49:28.669Z,100.00
2022-11-05T05:51:57.009Z,100.00
2022-11-05T05:54:32.082Z,100.00
2022-11-05T05:57:09.217Z,100.00
2022-11-05T05:59:38.833Z,100.00
2022-11-05T06:04:50.134Z,100.00
2022-11-05T06:07:36.037Z,100.00
2022-11-05T06:10:06.292Z,100.00
2022-11-05T06:12:37.978Z,100.00
2022-11-05T06:15:11.342Z,100.00
2022-11-05T06:17:47.173Z,100.00
2022-11-05T06:20:15.598Z,100.00
2022-11-05T06:22:54.939Z,100.00
2022-11-05T06:25:28.124Z,100.00
2022-11-05T06:27:55.216Z,99.83
2022-11-05T06:30:23.597Z,99.60
2022-11-05T06:32:53.100Z,99.75
2022-11-05T06:35:19.981Z,99.39
2022-11-05T06:37:49.866Z,99.28
2022-11-05T06:40:16.822Z,98.81
2022-11-05T06:42:43.595Z,99.21
2022-11-05T06:45:11.045Z,99.73
2022-11-05T06:47:42.806Z,99.28
2022-11-05T06:50:11.123Z,99.02
2022-11-05T06:52:41.004Z,99.16
2022-11-05T06:55:11.089Z,99.00
2022-11-05T06:57:38.990Z,99.72
2022-11-05T07:00:08.201Z,100.00
2022-11-05T07:02:35.442Z,100.00
2022-11-05T07:05:05.315Z,100.00
2022-11-05T07:07:35.575Z,100.00
2022-11-05T07:10:02.817Z,100.00
2022-11-05T07:12:30.247Z,100.00
2022-11-05T07:15:00.263Z,100.00
2022-11-05T07:17:27.243Z,100.00
2022-11-05T07:19:56.481Z,100.00
2022-11-05T07:22:23.212Z,99.98
2022-11-05T07:24:50.367Z,99.34
2022-11-05T07:27:17.936Z,98.62
2022-11-05T07:29:44.927Z,98.67
2022-11-05T07:32:17.153Z,99.30
2022-11-05T07:34:44.271Z,99.18
2022-11-05T07:37:18.040Z,98.52
2022-11-05T07:39:45.080Z,98.26
2022-11-05T07:42:15.072Z,97.29
2022-11-05T07:44:42.274Z,96.26
2022-11-05T07:47:14.395Z,97.13
2022-11-05T07:49:42.807Z,97.17
2022-11-05T07:52:09.790Z,97.23
2022-11-05T07:54:40.485Z,96.71
2022-11-05T07:57:25.154Z,96.65
2022-11-05T07:59:52.081Z,96.64
2022-11-05T08:02:19.192Z,96.56
2022-11-05T08:09:31.446Z,95.79
2022-11-05T08:12:02.596Z,94.65
2022-11-05T08:14:31.554Z,95.07
2022-11-05T08:16:58.734Z,94.33
2022-11-05T08:19:28.134Z,94.15
2022-11-05T08:21:57.570Z,95.05
2022-11-05T08:24:27.182Z,95.88
2022-11-05T08:26:54.212Z,95.39
2022-11-05T08:29:21.142Z,95.43
2022-11-05T08:31:48.045Z,95.87
2022-11-05T08:34:14.804Z,96.15
2022-11-05T08:36:43.408Z,96.35
2022-11-05T08:39:17.086Z,95.12
2022-11-05T08:41:47.241Z,94.31
2022-11-05T08:44:19.471Z,93.82
2022-11-05T08:46:46.499Z,94.32
2022-11-05T08:49:14.675Z,93.52
2022-11-05T08:52:13.546Z,93.07
2022-11-05T08:54:51.952Z,93.36
2022-11-05T08:57:24.341Z,91.43
2022-11-05T09:03:05.806Z,92.98
2022-11-05T09:05:47.450Z,91.29
2022-11-05T09:08:27.651Z,91.22
2022-11-05T09:11:10.914Z,91.49
2022-11-05T09:13:44.890Z,91.37
2022-11-05T09:16:22.272Z,90.16
2022-11-05T09:18:50.384Z,90.72
2022-11-05T09:21:18.543Z,90.10
2022-11-05T09:23:57.441Z,89.45
2022-11-05T09:26:26.556Z,88.49
2022-11-05T09:28:59.413Z,88.97
2022-11-05T09:31:26.559Z,88.54
2022-11-05T09:34:04.626Z,86.81
2022-11-05T09:36:41.397Z,86.11
2022-11-05T09:39:20.137Z,86.46
2022-11-05T09:41:54.416Z,88.55
2022-11-05T09:44:46.195Z,88.25
2022-11-05T09:47:38.890Z,87.32
2022-11-05T10:52:43.965Z,78.98
2022-11-05T11:13:05.524Z,82.04
2022-11-05T11:37:19.224Z,81.54
2022-11-05T11:40:28.269Z,80.40
2022-11-05T11:43:08.878Z,79.62
2022-11-05T11:49:14.118Z,81.39
2022-11-05T11:52:12.288Z,81.40
2022-11-05T11:54:44.981Z,79.86
2022-11-05T11:57:26.874Z,80.53
2022-11-05T12:00:14.652Z,80.81
2022-11-05T12:02:49.829Z,81.06
2022-11-05T12:05:48.238Z,80.06
2022-11-05T12:17:25.741Z,81.66
2022-11-05T12:20:48.458Z,81.61
2022-11-05T12:24:07.630Z,78.76
2022-11-05T12:27:01.664Z,79.30
2022-11-05T12:29:53.824Z,78.24
2022-11-05T12:32:53.649Z,75.93
2022-11-05T12:35:48.986Z,77.13
2022-11-05T12:39:15.979Z,75.58
2022-11-05T12:42:30.695Z,75.52
2022-11-05T12:45:25.433Z,74.94
2022-11-05T12:48:45.701Z,75.60
2022-11-05T12:51:50.196Z,76.65
2022-11-05T12:58:18.913Z,76.21
2022-11-05T13:01:25.197Z,75.67
2022-11-05T13:05:00.308Z,77.45
2022-11-05T13:08:18.493Z,78.43
2022-11-05T13:15:49.323Z,79.68
2022-11-05T13:18:24.146Z,81.02
2022-11-05T13:25:53.599Z,80.59
2022-11-05T13:33:55.433Z,78.87
2022-11-05T13:49:47.473Z,80.92
2022-11-05T18:03:45.005Z,87.61
2022-11-05T18:06:54.900Z,87.52
2022-11-05T18:09:31.572Z,87.25
2022-11-05T18:12:09.054Z,87.58
2022-11-05T18:15:04.008Z,87.44
2022-11-05T18:17:30.632Z,87.69
2022-11-05T18:19:57.121Z,87.55
2022-11-05T18:22:23.741Z,87.84
2022-11-05T18:24:50.233Z,88.25
2022-11-05T18:27:16.662Z,88.66
2022-11-05T18:29:43.144Z,88.65
2022-11-05T18:32:09.640Z,90.09
2022-11-05T18:34:36.216Z,89.36
2022-11-05T18:37:03.365Z,89.78
2022-11-05T18:39:29.863Z,89.45
2022-11-05T18:41:56.324Z,89.51
2022-11-05T18:44:24.643Z,89.70
2022-11-05T18:46:58.241Z,88.98
2022-11-05T18:49:26.035Z,89.02
2022-11-05T18:51:52.601Z,88.94
2022-11-05T18:54:19.588Z,89.04
2022-11-05T18:56:46.487Z,89.39
2022-11-05T18:59:35.762Z,89.58
2022-11-05T19:02:02.457Z,89.54
2022-11-05T19:04:30.459Z,89.44
2022-11-05T19:07:01.505Z,89.89
2022-11-05T19:09:30.761Z,89.87
2022-11-05T19:11:57.257Z,89.88
2022-11-05T19:14:24.816Z,90.03
2022-11-05T19:16:51.310Z,89.98
2022-11-05T19:19:17.759Z,90.16
2022-11-05T19:21:44.470Z,90.45
2022-11-05T19:24:16.586Z,90.70
2022-11-05T19:26:48.029Z,90.52
2022-11-05T19:29:15.018Z,91.06
2022-11-05T19:31:41.852Z,90.91
2022-11-05T19:34:08.545Z,91.05
2022-11-05T19:36:35.044Z,90.75
2022-11-05T19:39:06.232Z,90.86
2022-11-05T19:41:32.718Z,90.15
2022-11-05T19:44:01.423Z,90.04
2022-11-05T19:46:28.777Z,89.83
2022-11-05T19:48:55.605Z,89.68
2022-11-05T19:51:24.405Z,89.96
2022-11-05T19:53:52.664Z,89.99
2022-11-05T19:56:27.779Z,90.45
2022-11-05T19:58:54.426Z,89.99
2022-11-05T20:01:22.809Z,90.59
2022-11-05T20:03:49.888Z,91.10
2022-11-05T20:06:22.928Z,91.92
2022-11-05T20:11:37.662Z,92.20
2022-11-05T20:14:07.391Z,92.13
2022-11-05T20:16:39.931Z,92.35
2022-11-05T20:19:09.945Z,92.91
2022-11-05T20:21:36.938Z,91.88
2022-11-05T20:24:03.740Z,91.41
2022-11-05T20:26:30.929Z,90.80
2022-11-05T20:28:57.392Z,90.93
2022-11-05T20:31:23.955Z,91.00
2022-11-05T20:33:51.159Z,91.27
2022-11-05T20:36:22.098Z,91.16
2022-11-05T20:38:50.658Z,91.40
2022-11-05T20:41:17.976Z,91.54
2022-11-05T20:43:45.092Z,91.67
2022-11-05T20:46:14.137Z,91.18
2022-11-05T20:48:40.708Z,91.96
2022-11-05T20:51:12.506Z,90.87
2022-11-05T20:53:39.208Z,90.27
2022-11-05T20:56:09.628Z,90.25
2022-11-05T20:58:37.588Z,90.92
2022-11-05T21:01:05.468Z,90.78
2022-11-05T21:03:32.140Z,90.44
2022-11-05T21:05:59.882Z,90.38
2022-11-05T21:08:27.707Z,90.29
2022-11-05T21:10:55.155Z,90.42
2022-11-05T21:13:22.978Z,90.36
2022-11-05T21:15:54.623Z,90.12
2022-11-05T21:18:23.736Z,90.09
2022-11-05T21:20:51.033Z,90.81
2022-11-05T21:23:17.573Z,91.09
2022-11-05T21:25:44.674Z,90.40
2022-11-05T21:28:13.259Z,90.28
2022-11-05T21:30:42.581Z,90.23
2022-11-05T21:33:09.037Z,90.29
2022-11-05T21:35:43.919Z,89.73
2022-11-05T21:38:11.998Z,89.75
2022-11-05T21:40:38.943Z,89.17
2022-11-05T21:43:05.622Z,89.31
2022-11-05T21:45:32.498Z,89.24
2022-11-05T21:47:58.941Z,89.48
2022-11-05T21:50:44.484Z,89.55
2022-11-05T21:53:33.950Z,90.35
2022-11-05T21:56:19.173Z,89.83
2022-11-05T21:59:04.227Z,89.89
2022-11-05T22:01:31.616Z,90.56
2022-11-05T22:04:02.924Z,90.86
2022-11-05T22:06:32.853Z,91.47
2022-11-05T22:08:59.589Z,91.80
2022-11-05T22:11:26.124Z,92.61
2022-11-05T22:13:53.296Z,92.34
2022-11-05T22:16:19.771Z,92.43
2022-11-05T22:18:46.328Z,92.33
2022-11-05T22:21:19.251Z,92.37
2022-11-05T22:23:45.724Z,92.99
2022-11-05T22:26:12.342Z,93.07
2022-11-05T22:28:38.905Z,93.46
2022-11-05T22:31:12.336Z,93.63
2022-11-05T22:33:38.838Z,93.47
2022-11-05T22:36:05.571Z,93.99
2022-11-05T22:38:32.089Z,93.80
2022-11-05T22:40:58.577Z,93.62
2022-11-05T22:43:25.100Z,93.18
2022-11-05T22:45:51.488Z,94.14
2022-11-05T22:48:17.897Z,93.16
2022-11-05T22:50:44.338Z,93.96
2022-11-05T22:53:10.764Z,93.48
2022-11-05T22:55:40.292Z,93.48
2022-11-05T22:58:06.741Z,93.89
2022-11-05T23:00:37.291Z,93.40
2022-11-05T23:03:03.973Z,93.62
2022-11-05T23:05:30.520Z,93.24
2022-11-05T23:08:15.895Z,92.92
2022-11-05T23:11:00.906Z,93.54
2022-11-05T23:13:27.319Z,93.27
2022-11-05T23:16:12.435Z,93.50
2022-11-05T23:18:57.201Z,94.79
2022-11-05T23:21:42.036Z,94.47
2022-11-05T23:24:08.595Z,94.46
2022-11-05T23:26:51.503Z,95.02
2022-11-05T23:29:23.488Z,94.55
2022-11-05T23:32:09.095Z,94.62
2022-11-05T23:34:35.741Z,94.49
2022-11-05T23:37:21.369Z,94.59
2022-11-05T23:39:47.954Z,94.78
2022-11-05T23:42:33.055Z,94.72
2022-11-05T23:45:17.841Z,94.45
2022-11-05T23:48:03.539Z,94.45
2022-11-05T23:50:34.432Z,94.34
2022-11-05T23:53:05.375Z,94.40
2022-11-05T23:55:31.837Z,94.01
2022-11-05T23:57:58.276Z,93.71
